Aviation Digital Data Service (ADDS)

Output produced by METARs form (1846 UTC 18 April 2019)
found at http://www.aviationweather.gov/metar/data/
 
METAR text: LEGT 181800Z 02005KT 9999 -RA FEW010 SCT030 BKN040 12/10 Q1012
Conditions at: LEGT (MADRID/GETAFE (A, ES) observed 1800 UTC 18 April 2019
Temperature: 12.0°C (54°F)
Dewpoint: 10.0°C (50°F) [RH = 88%]
Pressure (altimeter): 29.88 inches Hg (1012.0 mb)
Winds: from the NNE (20 degrees) at 6 MPH (5 knots; 2.6 m/s)
Visibility: 6 or more miles (10+ km)
Ceiling: 4000 feet AGL
Clouds: few clouds at 1000 feet AGL
scattered clouds at 3000 feet AGL
broken clouds at 4000 feet AGL
Weather: -RA  (light rain)

METAR text: LEGT 181700Z 03006KT 9999 -RA FEW015 BKN045 12/09 Q1012
Conditions at: LEGT (MADRID/GETAFE (A, ES) observed 1700 UTC 18 April 2019
Temperature: 12.0°C (54°F)
Dewpoint: 9.0°C (48°F) [RH = 82%]
Pressure (altimeter): 29.88 inches Hg (1012.0 mb)
Winds: from the NNE (30 degrees) at 7 MPH (6 knots; 3.1 m/s)
Visibility: 6 or more miles (10+ km)
Ceiling: 4500 feet AGL
Clouds: few clouds at 1500 feet AGL
broken clouds at 4500 feet AGL
Weather: -RA  (light rain)

METAR text: LEGT 181600Z 03005KT 9999 FEW010 SCT015 BKN020 12/10 Q1012
Conditions at: LEGT (MADRID/GETAFE (A, ES) observed 1600 UTC 18 April 2019
Temperature: 12.0°C (54°F)
Dewpoint: 10.0°C (50°F) [RH = 88%]
Pressure (altimeter): 29.88 inches Hg (1012.0 mb)
Winds: from the NNE (30 degrees) at 6 MPH (5 knots; 2.6 m/s)
Visibility: 6 or more miles (10+ km)
Ceiling: 2000 feet AGL
Clouds: few clouds at 1000 feet AGL
scattered clouds at 1500 feet AGL
broken clouds at 2000 feet AGL
Weather: no significant weather observed at this time

METAR text: LEGT 181500Z VRB01KT 9999 RA FEW015 SCT025 BKN045 12/09 Q1012
Conditions at: LEGT (MADRID/GETAFE (A, ES) observed 1500 UTC 18 April 2019
Temperature: 12.0°C (54°F)
Dewpoint: 9.0°C (48°F) [RH = 82%]
Pressure (altimeter): 29.88 inches Hg (1012.0 mb)
Winds: variable direction winds at 1 MPH (1 knots; 0.5 m/s)
Visibility: 6 or more miles (10+ km)
Ceiling: 4500 feet AGL
Clouds: few clouds at 1500 feet AGL
scattered clouds at 2500 feet AGL
broken clouds at 4500 feet AGL
Weather: RA  (moderate rain)

METAR text: LEGT 181400Z 04005KT 010V090 9999 SCT015 BKN045 12/09 Q1012
Conditions at: LEGT (MADRID/GETAFE (A, ES) observed 1400 UTC 18 April 2019
Temperature: 12.0°C (54°F)
Dewpoint: 9.0°C (48°F) [RH = 82%]
Pressure (altimeter): 29.88 inches Hg (1012.0 mb)
Winds: from the NE (40 degrees) at 6 MPH (5 knots; 2.6 m/s)
Visibility: 6 or more miles (10+ km)
Ceiling: 4500 feet AGL
Clouds: scattered clouds at 1500 feet AGL
broken clouds at 4500 feet AGL
Weather: no significant weather observed at this time

METAR text: LEGT 181300Z 08006KT 9999 -RA FEW014 SCT019 BKN023 12/09 Q1013
Conditions at: LEGT (MADRID/GETAFE (A, ES) observed 1300 UTC 18 April 2019
Temperature: 12.0°C (54°F)
Dewpoint: 9.0°C (48°F) [RH = 82%]
Pressure (altimeter): 29.91 inches Hg (1013.0 mb)
Winds: from the E (80 degrees) at 7 MPH (6 knots; 3.1 m/s)
Visibility: 6 or more miles (10+ km)
Ceiling: 2300 feet AGL
Clouds: few clouds at 1400 feet AGL
scattered clouds at 1900 feet AGL
broken clouds at 2300 feet AGL
Weather: -RA  (light rain)

METAR text: LEGT 181200Z 06006KT 9999 RA FEW013 BKN048 11/09 Q1013
Conditions at: LEGT (MADRID/GETAFE (A, ES) observed 1200 UTC 18 April 2019
Temperature: 11.0°C (52°F)
Dewpoint: 9.0°C (48°F) [RH = 87%]
Pressure (altimeter): 29.91 inches Hg (1013.0 mb)
Winds: from the ENE (60 degrees) at 7 MPH (6 knots; 3.1 m/s)
Visibility: 6 or more miles (10+ km)
Ceiling: 4800 feet AGL
Clouds: few clouds at 1300 feet AGL
broken clouds at 4800 feet AGL
Weather: RA  (moderate rain)

METAR text: LEGT 181100Z 08010KT 9999 -RA FEW007 SCT009 BKN030 11/10 Q1014
Conditions at: LEGT (MADRID/GETAFE (A, ES) observed 1100 UTC 18 April 2019
Temperature: 11.0°C (52°F)
Dewpoint: 10.0°C (50°F) [RH = 94%]
Pressure (altimeter): 29.94 inches Hg (1014.0 mb)
Winds: from the E (80 degrees) at 12 MPH (10 knots; 5.1 m/s)
Visibility: 6 or more miles (10+ km)
Ceiling: 3000 feet AGL
Clouds: few clouds at 700 feet AGL
scattered clouds at 900 feet AGL
broken clouds at 3000 feet AGL
Weather: -RA  (light rain)

METAR text: LEGT 181000Z 09010KT 9999 -RA SCT006 BKN007 BKN009 11/10 Q1014
Conditions at: LEGT (MADRID/GETAFE (A, ES) observed 1000 UTC 18 April 2019
Temperature: 11.0°C (52°F)
Dewpoint: 10.0°C (50°F) [RH = 94%]
Pressure (altimeter): 29.94 inches Hg (1014.0 mb)
Winds: from the E (90 degrees) at 12 MPH (10 knots; 5.1 m/s)
Visibility: 6 or more miles (10+ km)
Ceiling: 700 feet AGL
Clouds: scattered clouds at 600 feet AGL
broken clouds at 700 feet AGL
broken clouds at 900 feet AGL
Weather: -RA  (light rain)

METAR text: LEGT 180900Z 09008KT 6000 RA FEW004 BKN006 11/10 Q1014
Conditions at: LEGT (MADRID/GETAFE (A, ES) observed 0900 UTC 18 April 2019
Temperature: 11.0°C (52°F)
Dewpoint: 10.0°C (50°F) [RH = 94%]
Pressure (altimeter): 29.94 inches Hg (1014.0 mb)
Winds: from the E (90 degrees) at 9 MPH (8 knots; 4.1 m/s)
Visibility: 4 miles ( 6 km)
Ceiling: 600 feet AGL
Clouds: few clouds at 400 feet AGL
broken clouds at 600 feet AGL
Weather: RA  (moderate rain)

METAR text: LEGT 180800Z 06007KT 7000 -RA SCT004 BKN017 11/10 Q1013
Conditions at: LEGT (MADRID/GETAFE (A, ES) observed 0800 UTC 18 April 2019
Temperature: 11.0°C (52°F)
Dewpoint: 10.0°C (50°F) [RH = 94%]
Pressure (altimeter): 29.91 inches Hg (1013.0 mb)
Winds: from the ENE (60 degrees) at 8 MPH (7 knots; 3.6 m/s)
Visibility: 4 miles ( 7 km)
Ceiling: 1700 feet AGL
Clouds: scattered clouds at 400 feet AGL
broken clouds at 1700 feet AGL
Weather: -RA  (light rain)

METAR text: LEGT 180724Z 04008KT 9999 -RA FEW003 SCT031 10/10 Q1013
Conditions at: LEGT (MADRID/GETAFE (A, ES) observed 0724 UTC 18 April 2019
Temperature: 10.0°C (50°F)
Dewpoint: 10.0°C (50°F) [RH = 100%]
Pressure (altimeter): 29.91 inches Hg (1013.0 mb)
Winds: from the NE (40 degrees) at 9 MPH (8 knots; 4.1 m/s)
Visibility: 6 or more miles (10+ km)
Ceiling: at least 12,000 feet AGL
Clouds: few clouds at 300 feet AGL
scattered clouds at 3100 feet AGL
Weather: -RA  (light rain)

METAR text: LEGT 180700Z 06008KT 4500 -RA BR SCT003 SCT009 BKN017 11/10 Q1013
Conditions at: LEGT (MADRID/GETAFE (A, ES) observed 0700 UTC 18 April 2019
Temperature: 11.0°C (52°F)
Dewpoint: 10.0°C (50°F) [RH = 94%]
Pressure (altimeter): 29.91 inches Hg (1013.0 mb)
Winds: from the ENE (60 degrees) at 9 MPH (8 knots; 4.1 m/s)
Visibility: 2.80 miles (4.51 km)
Ceiling: 1700 feet AGL
Clouds: scattered clouds at 300 feet AGL
scattered clouds at 900 feet AGL
broken clouds at 1700 feet AGL
Weather: -RA BR  (light rain, mist)

METAR text: LEGT 180645Z 07007KT 2500 -RA FEW003 SCT006 BKN025 11/10 Q1013
Conditions at: LEGT (MADRID/GETAFE (A, ES) observed 0645 UTC 18 April 2019
Temperature: 11.0°C (52°F)
Dewpoint: 10.0°C (50°F) [RH = 94%]
Pressure (altimeter): 29.91 inches Hg (1013.0 mb)
Winds: from the ENE (70 degrees) at 8 MPH (7 knots; 3.6 m/s)
Visibility: 1.55 miles (2.49 km)
Ceiling: 2500 feet AGL
Clouds: few clouds at 300 feet AGL
scattered clouds at 600 feet AGL
broken clouds at 2500 feet AGL
Weather: -RA  (light rain)

METAR text: LEGT 180600Z 05003KT 9999 -RA FEW004 SCT044 11/10 Q1013
Conditions at: LEGT (MADRID/GETAFE (A, ES) observed 0600 UTC 18 April 2019
Temperature: 11.0°C (52°F)
Dewpoint: 10.0°C (50°F) [RH = 94%]
Pressure (altimeter): 29.91 inches Hg (1013.0 mb)
Winds: from the NE (50 degrees) at 3 MPH (3 knots; 1.5 m/s)
Visibility: 6 or more miles (10+ km)
Ceiling: at least 12,000 feet AGL
Clouds: few clouds at 400 feet AGL
scattered clouds at 4400 feet AGL
Weather: -RA  (light rain)

METAR text: LEGT 180527Z 05004KT 9999 -RA FEW006 SCT042 BKN047 11/10 Q1013
Conditions at: LEGT (MADRID/GETAFE (A, ES) observed 0527 UTC 18 April 2019
Temperature: 11.0°C (52°F)
Dewpoint: 10.0°C (50°F) [RH = 94%]
Pressure (altimeter): 29.91 inches Hg (1013.0 mb)
Winds: from the NE (50 degrees) at 5 MPH (4 knots; 2.1 m/s)
Visibility: 6 or more miles (10+ km)
Ceiling: 4700 feet AGL
Clouds: few clouds at 600 feet AGL
scattered clouds at 4200 feet AGL
broken clouds at 4700 feet AGL
Weather: -RA  (light rain)

METAR text: LEGT 180500Z 04004KT 9999 RA FEW003 SCT005 BKN009 11/10 Q1013
Conditions at: LEGT (MADRID/GETAFE (A, ES) observed 0500 UTC 18 April 2019
Temperature: 11.0°C (52°F)
Dewpoint: 10.0°C (50°F) [RH = 94%]
Pressure (altimeter): 29.91 inches Hg (1013.0 mb)
Winds: from the NE (40 degrees) at 5 MPH (4 knots; 2.1 m/s)
Visibility: 6 or more miles (10+ km)
Ceiling: 900 feet AGL
Clouds: few clouds at 300 feet AGL
scattered clouds at 500 feet AGL
broken clouds at 900 feet AGL
Weather: RA  (moderate rain)

METAR text: LEGT 171900Z 26009KT 230V290 9999 FEW048CB 19/08 Q1011
Conditions at: LEGT (MADRID/GETAFE (A, ES) observed 1900 UTC 17 April 2019
Temperature: 19.0°C (66°F)
Dewpoint: 8.0°C (46°F) [RH = 49%]
Pressure (altimeter): 29.85 inches Hg (1011.0 mb)
Winds: from the W (260 degrees) at 10 MPH (9 knots; 4.6 m/s)
Visibility: 6 or more miles (10+ km)
Ceiling: at least 12,000 feet AGL
Clouds: few clouds at 4800 feet AGL
Weather: no significant weather observed at this time

METAR text: LEGT 171800Z 25009KT 230V290 9999 VCSH SCT043CB 21/08 Q1010
Conditions at: LEGT (MADRID/GETAFE (A, ES) observed 1800 UTC 17 April 2019
Temperature: 21.0°C (70°F)
Dewpoint: 8.0°C (46°F) [RH = 43%]
Pressure (altimeter): 29.82 inches Hg (1010.0 mb)
Winds: from the WSW (250 degrees) at 10 MPH (9 knots; 4.6 m/s)
Visibility: 6 or more miles (10+ km)
Ceiling: at least 12,000 feet AGL
Clouds: scattered clouds at 4300 feet AGL
Weather: VCSH  (showers in vicinity)

METAR text: LEGT 171725Z 24016KT 210V270 9999 SCT040CB 22/06 Q1010
Conditions at: LEGT (MADRID/GETAFE (A, ES) observed 1725 UTC 17 April 2019
Temperature: 22.0°C (72°F)
Dewpoint: 6.0°C (43°F) [RH = 35%]
Pressure (altimeter): 29.82 inches Hg (1010.0 mb)
Winds: from the WSW (240 degrees) at 18 MPH (16 knots; 8.2 m/s)
Visibility: 6 or more miles (10+ km)
Ceiling: at least 12,000 feet AGL
Clouds: scattered clouds at 4000 feet AGL
Weather: no significant weather observed at this time

METAR text: LEGT 171700Z 15014KT 9999 VCSH SCT040CB 24/06 Q1008
Conditions at: LEGT (MADRID/GETAFE (A, ES) observed 1700 UTC 17 April 2019
Temperature: 24.0°C (75°F)
Dewpoint: 6.0°C (43°F) [RH = 31%]
Pressure (altimeter): 29.76 inches Hg (1008.0 mb)
Winds: from the SSE (150 degrees) at 16 MPH (14 knots; 7.2 m/s)
Visibility: 6 or more miles (10+ km)
Ceiling: at least 12,000 feet AGL
Clouds: scattered clouds at 4000 feet AGL
Weather: VCSH  (showers in vicinity)

METAR text: LEGT 171638Z 15014KT 120V180 9999 SCT045CB 24/06 Q1008
Conditions at: LEGT (MADRID/GETAFE (A, ES) observed 1638 UTC 17 April 2019
Temperature: 24.0°C (75°F)
Dewpoint: 6.0°C (43°F) [RH = 31%]
Pressure (altimeter): 29.76 inches Hg (1008.0 mb)
Winds: from the SSE (150 degrees) at 16 MPH (14 knots; 7.2 m/s)
Visibility: 6 or more miles (10+ km)
Ceiling: at least 12,000 feet AGL
Clouds: scattered clouds at 4500 feet AGL
Weather: no significant weather observed at this time

METAR text: LEGT 171600Z 14013G23KT 110V170 CAVOK 25/06 Q1008
Conditions at: LEGT (MADRID/GETAFE (A, ES) observed 1600 UTC 17 April 2019
Temperature: 25.0°C (77°F)
Dewpoint: 6.0°C (43°F) [RH = 30%]
Pressure (altimeter): 29.76 inches Hg (1008.0 mb)
Winds: from the SE (140 degrees) at 15 MPH (13 knots; 6.7 m/s)
gusting to 26 MPH (23 knots; 11.8 m/s)
Visibility: 6 or more miles (10+ km)
Ceiling: ceiling and visibility are OK
Clouds: unknown
Weather: no significant weather observed at this time

METAR text: LEGT 171500Z 16012G22KT CAVOK 25/06 Q1008
Conditions at: LEGT (MADRID/GETAFE (A, ES) observed 1500 UTC 17 April 2019
Temperature: 25.0°C (77°F)
Dewpoint: 6.0°C (43°F) [RH = 30%]
Pressure (altimeter): 29.76 inches Hg (1008.0 mb)
Winds: from the SSE (160 degrees) at 14 MPH (12 knots; 6.2 m/s)
gusting to 25 MPH (22 knots; 11.3 m/s)
Visibility: 6 or more miles (10+ km)
Ceiling: ceiling and visibility are OK
Clouds: unknown
Weather: no significant weather observed at this time

METAR text: LEGT 171400Z 13010KT 100V170 CAVOK 25/06 Q1010
Conditions at: LEGT (MADRID/GETAFE (A, ES) observed 1400 UTC 17 April 2019
Temperature: 25.0°C (77°F)
Dewpoint: 6.0°C (43°F) [RH = 30%]
Pressure (altimeter): 29.82 inches Hg (1010.0 mb)
Winds: from the SE (130 degrees) at 12 MPH (10 knots; 5.1 m/s)
Visibility: 6 or more miles (10+ km)
Ceiling: ceiling and visibility are OK
Clouds: unknown
Weather: no significant weather observed at this time

METAR text: LEGT 171300Z 12007KT 060V160 CAVOK 23/07 Q1011
Conditions at: LEGT (MADRID/GETAFE (A, ES) observed 1300 UTC 17 April 2019
Temperature: 23.0°C (73°F)
Dewpoint: 7.0°C (45°F) [RH = 36%]
Pressure (altimeter): 29.85 inches Hg (1011.0 mb)
Winds: from the ESE (120 degrees) at 8 MPH (7 knots; 3.6 m/s)
Visibility: 6 or more miles (10+ km)
Ceiling: ceiling and visibility are OK
Clouds: unknown
Weather: no significant weather observed at this time

METAR text: LEGT 171200Z 13009KT 070V190 CAVOK 21/08 Q1012
Conditions at: LEGT (MADRID/GETAFE (A, ES) observed 1200 UTC 17 April 2019
Temperature: 21.0°C (70°F)
Dewpoint: 8.0°C (46°F) [RH = 43%]
Pressure (altimeter): 29.88 inches Hg (1012.0 mb)
Winds: from the SE (130 degrees) at 10 MPH (9 knots; 4.6 m/s)
Visibility: 6 or more miles (10+ km)
Ceiling: ceiling and visibility are OK
Clouds: unknown
Weather: no significant weather observed at this time

METAR text: LEGT 171100Z 11009KT 070V160 CAVOK 19/08 Q1013
Conditions at: LEGT (MADRID/GETAFE (A, ES) observed 1100 UTC 17 April 2019
Temperature: 19.0°C (66°F)
Dewpoint: 8.0°C (46°F) [RH = 49%]
Pressure (altimeter): 29.91 inches Hg (1013.0 mb)
Winds: from the ESE (110 degrees) at 10 MPH (9 knots; 4.6 m/s)
Visibility: 6 or more miles (10+ km)
Ceiling: ceiling and visibility are OK
Clouds: unknown
Weather: no significant weather observed at this time

METAR text: LEGT 171000Z 09005KT 010V160 CAVOK 17/08 Q1014
Conditions at: LEGT (MADRID/GETAFE (A, ES) observed 1000 UTC 17 April 2019
Temperature: 17.0°C (63°F)
Dewpoint: 8.0°C (46°F) [RH = 55%]
Pressure (altimeter): 29.94 inches Hg (1014.0 mb)
Winds: from the E (90 degrees) at 6 MPH (5 knots; 2.6 m/s)
Visibility: 6 or more miles (10+ km)
Ceiling: ceiling and visibility are OK
Clouds: unknown
Weather: no significant weather observed at this time

METAR text: LEGT 170900Z 07008KT 030V110 9999 FEW021 14/08 Q1014
Conditions at: LEGT (MADRID/GETAFE (A, ES) observed 0900 UTC 17 April 2019
Temperature: 14.0°C (57°F)
Dewpoint: 8.0°C (46°F) [RH = 67%]
Pressure (altimeter): 29.94 inches Hg (1014.0 mb)
Winds: from the ENE (70 degrees) at 9 MPH (8 knots; 4.1 m/s)
Visibility: 6 or more miles (10+ km)
Ceiling: at least 12,000 feet AGL
Clouds: few clouds at 2100 feet AGL
Weather: no significant weather observed at this time

METAR text: LEGT 170800Z 07007KT 040V100 CAVOK 13/08 Q1014
Conditions at: LEGT (MADRID/GETAFE (A, ES) observed 0800 UTC 17 April 2019
Temperature: 13.0°C (55°F)
Dewpoint: 8.0°C (46°F) [RH = 72%]
Pressure (altimeter): 29.94 inches Hg (1014.0 mb)
Winds: from the ENE (70 degrees) at 8 MPH (7 knots; 3.6 m/s)
Visibility: 6 or more miles (10+ km)
Ceiling: ceiling and visibility are OK
Clouds: unknown
Weather: no significant weather observed at this time

METAR text: LEGT 170700Z 07005KT 030V090 CAVOK 11/07 Q1015
Conditions at: LEGT (MADRID/GETAFE (A, ES) observed 0700 UTC 17 April 2019
Temperature: 11.0°C (52°F)
Dewpoint: 7.0°C (45°F) [RH = 76%]
Pressure (altimeter): 29.97 inches Hg (1015.0 mb)
Winds: from the ENE (70 degrees) at 6 MPH (5 knots; 2.6 m/s)
Visibility: 6 or more miles (10+ km)
Ceiling: ceiling and visibility are OK
Clouds: unknown
Weather: no significant weather observed at this time

Forecast for: LEGT (MADRID/GETAFE (A, ES)
Text: TAF LEGT 181700Z 1818/1903 VRB05KT 9999 FEW015 BKN030
Forecast period: 1800 UTC 18 April 2019 to 0300 UTC 19 April 2019
Forecast type: FROM: standard forecast or significant change
Winds: variable direction winds at 6 MPH (5 knots; 2.6 m/s)
Visibility: 6 or more miles 10+ km)
Ceiling: 3000 feet AGL
Clouds: few clouds at 1500 feet AGL
broken clouds at 3000 feet AGL
Weather: no significant weather forecast for this period
Text: PROB30
Forecast period: 1800 UTC 18 April 2019 to 0000 UTC 19 April 2019
Forecast type: TEMPORARY: The following changes expected for less than half the time period
Visibility: missing
Ceiling: unknown
Clouds: missing
Weather: RA  (moderate rain)
Text: TEMPO 1818/1824 RA
Forecast period: 1800 UTC 18 April 2019 to 0000 UTC 19 April 2019
Forecast type: TEMPORARY: The following changes expected for less than half the time period
Visibility: missing
Ceiling: 1200 feet AGL
Clouds: broken clouds at 1200 feet AGL
Weather: no significant weather forecast for this period